Time;durP1;ratioP1;P1;durP2;ratioP2;P2;SDS_P1;SDS_P2;PMS_P1;PMS_P2;Temp;Humidity;BMP_temperature;BMP_pressure;BME280_temperature;BME280_humidity;BME280_pressure;Samples;Min_cycle;Max_cycle;Signal;HPM_P1;HPM_P2
2021/05/26 00:02:21;;;;;;;9.73;1.77;;;15.60;96.70;;;;;;5097768;27;20044;-76
2021/05/26 00:04:51;;;;;;;8.20;1.55;;;15.50;96.70;;;;;;5102506;27;20575;-76
2021/05/26 00:07:20;;;;;;;6.80;1.42;;;15.60;96.70;;;;;;5100097;27;20138;-76
2021/05/26 00:09:48;;;;;;;7.00;1.42;;;15.70;96.70;;;;;;5098681;28;20044;-76
2021/05/26 00:12:16;;;;;;;6.97;1.75;;;15.60;96.70;;;;;;5100045;28;20031;-76
2021/05/26 00:14:44;;;;;;;8.63;1.75;;;15.40;96.70;;;;;;5105047;27;20127;-76
2021/05/26 00:17:12;;;;;;;9.63;1.77;;;15.30;96.70;;;;;;5083297;28;20086;-76
2021/05/26 00:19:43;;;;;;;7.00;2.00;;;15.30;96.70;;;;;;5100519;27;20039;-76
2021/05/26 00:22:12;;;;;;;7.00;1.83;;;15.30;96.70;;;;;;5103222;27;20407;-76
2021/05/26 00:24:40;;;;;;;9.80;2.08;;;15.20;96.70;;;;;;5103188;27;20122;-76
2021/05/26 00:27:08;;;;;;;11.02;2.28;;;15.30;96.70;;;;;;5103954;27;20049;-76
2021/05/26 00:29:36;;;;;;;9.10;2.47;;;15.40;96.70;;;;;;5100967;27;20039;-76
2021/05/26 00:32:05;;;;;;;7.88;2.05;;;15.50;96.70;;;;;;5100022;28;20548;-76
2021/05/26 00:34:33;;;;;;;7.07;1.52;;;15.50;96.70;;;;;;5082291;28;20044;-76
2021/05/26 00:37:01;;;;;;;7.63;2.17;;;15.50;96.70;;;;;;5101818;28;20042;-76
2021/05/26 00:39:30;;;;;;;7.60;1.90;;;15.40;96.70;;;;;;5099076;28;20739;-76
2021/05/26 00:41:58;;;;;;;9.98;2.08;;;15.40;96.70;;;;;;5080565;27;20530;-76
2021/05/26 00:44:26;;;;;;;9.35;2.10;;;15.40;96.70;;;;;;5099061;28;20392;-76
2021/05/26 00:46:55;;;;;;;11.32;3.42;;;15.20;96.70;;;;;;5100503;28;20055;-76
2021/05/26 00:49:23;;;;;;;5.35;1.95;;;15.20;96.70;;;;;;5100562;28;20051;-76
2021/05/26 00:51:51;;;;;;;13.70;3.40;;;15.20;96.70;;;;;;5098161;28;20046;-76
2021/05/26 00:54:19;;;;;;;5.78;1.58;;;15.30;96.70;;;;;;5099258;27;20035;-76
2021/05/26 00:56:49;;;;;;;8.85;1.90;;;15.40;96.70;;;;;;5098024;27;20520;-76
2021/05/26 00:59:17;;;;;;;9.63;2.08;;;15.30;96.70;;;;;;5101351;27;20051;-76
2021/05/26 01:01:45;;;;;;;9.55;2.33;;;15.20;96.70;;;;;;5105722;27;20039;-76
2021/05/26 01:04:14;;;;;;;9.00;2.00;;;15.20;96.70;;;;;;5081724;28;20134;-76
2021/05/26 01:06:50;;;;;;;8.73;1.80;;;15.30;96.70;;;;;;5102208;27;20044;-76
2021/05/26 01:09:18;;;;;;;7.40;1.70;;;15.20;96.70;;;;;;5106014;27;20027;-76
2021/05/26 01:11:47;;;;;;;10.05;2.05;;;15.20;96.70;;;;;;5098697;28;20128;-76
2021/05/26 01:14:16;;;;;;;10.00;2.45;;;15.20;96.70;;;;;;5099691;28;20067;-76
2021/05/26 01:16:44;;;;;;;5.68;1.48;;;15.10;96.70;;;;;;5099257;28;20048;-76
2021/05/26 01:19:21;;;;;;;12.32;2.00;;;15.00;96.70;;;;;;5100217;27;20043;-76
2021/05/26 01:21:55;;;;;;;7.55;1.85;;;14.80;96.70;;;;;;5103315;27;20048;-77
2021/05/26 01:24:24;;;;;;;7.00;1.58;;;14.90;96.70;;;;;;5097573;28;20040;-77
2021/05/26 01:26:52;;;;;;;7.68;1.60;;;14.90;96.70;;;;;;5101815;27;20522;-77
2021/05/26 01:29:21;;;;;;;8.40;1.85;;;14.90;96.70;;;;;;5099354;28;20517;-77
2021/05/26 01:31:50;;;;;;;6.20;1.20;;;14.90;96.70;;;;;;5101860;27;20039;-77
2021/05/26 01:34:19;;;;;;;5.90;1.45;;;14.90;96.70;;;;;;5096983;28;20446;-77
2021/05/26 01:36:48;;;;;;;6.35;1.60;;;14.80;96.70;;;;;;5074734;28;20051;-77
2021/05/26 01:39:20;;;;;;;9.30;1.80;;;14.80;96.70;;;;;;5094983;28;20421;-77
2021/05/26 01:41:48;;;;;;;6.50;1.25;;;14.80;96.70;;;;;;5099704;28;20390;-77
2021/05/26 01:44:16;;;;;;;7.30;1.30;;;14.90;96.70;;;;;;5100625;27;20046;-77
2021/05/26 01:46:51;;;;;;;5.70;1.48;;;14.70;96.70;;;;;;5100120;28;20088;-77
2021/05/26 01:49:19;;;;;;;6.95;1.50;;;14.60;96.70;;;;;;5100402;27;20043;-77
2021/05/26 01:51:48;;;;;;;7.18;1.70;;;14.60;96.70;;;;;;5104288;28;20132;-76
2021/05/26 01:54:18;;;;;;;7.15;1.92;;;14.60;96.70;;;;;;5084797;28;20040;-77
2021/05/26 01:56:47;;;;;;;6.18;1.35;;;14.60;96.70;;;;;;5100597;28;20044;-77
2021/05/26 01:59:19;;;;;;;10.77;1.50;;;14.40;96.70;;;;;;5100946;27;20046;-76
2021/05/26 02:01:51;;;;;;;5.60;1.33;;;14.50;96.70;;;;;;5082609;28;20126;-76
2021/05/26 02:04:23;;;;;;;9.38;1.63;;;14.50;96.70;;;;;;5083419;28;20455;-76
2021/05/26 02:07:01;;;;;;;5.15;1.58;;;14.50;96.70;;;;;;5100729;28;20042;-76
2021/05/26 02:09:31;;;;;;;7.65;1.30;;;14.50;96.70;;;;;;5098314;28;20574;-76
2021/05/26 02:14:48;;;;;;;5.65;1.40;;;14.40;96.70;;;;;;5097675;28;20150;-76
2021/05/26 02:17:16;;;;;;;9.20;2.10;;;14.30;96.70;;;;;;5098556;28;20035;-76
2021/05/26 02:19:47;;;;;;;6.22;1.67;;;14.30;96.70;;;;;;5097897;28;20404;-77
2021/05/26 02:22:15;;;;;;;7.97;1.45;;;14.30;96.70;;;;;;5097923;28;20080;-76
2021/05/26 02:24:45;;;;;;;5.45;1.65;;;14.30;96.70;;;;;;5081556;28;20048;-76
2021/05/26 02:27:14;;;;;;;6.05;1.23;;;14.20;96.70;;;;;;5103444;28;20040;-76
2021/05/26 02:29:44;;;;;;;5.95;1.50;;;14.20;96.70;;;;;;5099955;27;20483;-76
2021/05/26 02:32:12;;;;;;;6.22;1.30;;;14.10;96.70;;;;;;5098378;28;20676;-76
2021/05/26 02:34:44;;;;;;;5.80;1.65;;;14.10;96.70;;;;;;5100841;28;20039;-76
2021/05/26 02:37:13;;;;;;;8.20;1.23;;;14.10;96.70;;;;;;5104459;28;20039;-76
2021/05/26 02:39:41;;;;;;;5.68;1.27;;;14.00;96.70;;;;;;5084605;28;20051;-76
2021/05/26 02:42:10;;;;;;;6.82;1.48;;;14.10;96.70;;;;;;5099435;28;20032;-76
2021/05/26 02:44:38;;;;;;;5.82;1.10;;;14.10;96.70;;;;;;5098100;28;20036;-76
2021/05/26 02:47:06;;;;;;;5.93;1.50;;;14.00;96.70;;;;;;5099671;28;20043;-76
2021/05/26 02:49:38;;;;;;;7.70;1.60;;;14.00;96.70;;;;;;5097229;28;20070;-76
2021/05/26 02:52:07;;;;;;;5.65;1.10;;;14.10;96.70;;;;;;5100082;27;20119;-77
2021/05/26 02:54:37;;;;;;;8.25;1.45;;;14.10;96.70;;;;;;5099791;27;20101;-77
2021/05/26 02:57:06;;;;;;;6.80;1.40;;;14.10;96.70;;;;;;5100792;28;20543;-76
2021/05/26 02:59:53;;;;;;;7.35;1.52;;;14.10;96.70;;;;;;5100230;27;20173;-76
2021/05/26 03:02:42;;;;;;;5.53;1.58;;;14.00;96.70;;;;;;5071019;27;20051;-76
2021/05/26 03:05:14;;;;;;;4.72;1.63;;;14.00;96.70;;;;;;5087073;28;20075;-76
2021/05/26 03:07:44;;;;;;;10.65;1.88;;;14.10;96.70;;;;;;5100053;28;20505;-76
2021/05/26 03:10:15;;;;;;;5.85;1.23;;;14.10;96.70;;;;;;5102277;27;20134;-76
2021/05/26 03:12:44;;;;;;;9.25;1.70;;;14.00;96.70;;;;;;5101429;28;20038;-76
2021/05/26 03:15:18;;;;;;;7.13;1.20;;;14.00;96.70;;;;;;5101955;27;20058;-76
2021/05/26 03:17:47;;;;;;;8.57;1.48;;;13.90;96.70;;;;;;5102654;28;20130;-76
2021/05/26 03:20:18;;;;;;;4.47;1.20;;;13.90;96.70;;;;;;5104281;27;20440;-76
2021/05/26 03:23:09;;;;;;;7.85;1.55;;;13.90;96.70;;;;;;5102958;27;20051;-76
2021/05/26 03:25:58;;;;;;;5.47;1.10;;;13.90;96.70;;;;;;5101545;27;20043;-76
2021/05/26 03:28:26;;;;;;;7.15;1.60;;;13.80;96.70;;;;;;5104320;27;20070;-76
2021/05/26 03:30:55;;;;;;;6.15;1.40;;;13.70;96.70;;;;;;5100749;28;20588;-76
2021/05/26 03:33:24;;;;;;;6.78;1.35;;;13.80;96.70;;;;;;5088220;27;20036;-75
2021/05/26 03:35:55;;;;;;;5.45;1.48;;;13.80;96.70;;;;;;5101737;27;20039;-76
2021/05/26 03:38:24;;;;;;;4.15;1.45;;;13.80;96.70;;;;;;5102767;27;20150;-77
2021/05/26 03:40:58;;;;;;;6.93;1.25;;;13.80;96.70;;;;;;5101826;27;20031;-76
2021/05/26 03:43:31;;;;;;;5.43;1.17;;;13.70;96.70;;;;;;5102971;27;20064;-76
2021/05/26 03:46:01;;;;;;;5.07;1.30;;;13.60;96.70;;;;;;5104189;27;20595;-76
2021/05/26 03:48:32;;;;;;;8.57;1.50;;;13.60;96.70;;;;;;5086897;27;20048;-76
2021/05/26 03:51:02;;;;;;;5.45;1.30;;;13.60;96.70;;;;;;5084384;28;20191;-76
2021/05/26 03:53:31;;;;;;;7.78;1.75;;;13.60;96.70;;;;;;5081364;28;20070;-76
2021/05/26 03:56:03;;;;;;;5.60;1.48;;;13.60;96.70;;;;;;5091080;27;20166;-76
2021/05/26 03:58:31;;;;;;;7.40;1.23;;;13.60;96.70;;;;;;5101581;27;20481;-76
2021/05/26 04:01:06;;;;;;;6.57;1.40;;;13.60;96.70;;;;;;5090627;27;20047;-76
2021/05/26 04:03:36;;;;;;;4.07;1.17;;;13.60;96.70;;;;;;5103891;27;20031;-76
2021/05/26 04:06:09;;;;;;;5.57;1.17;;;13.60;96.70;;;;;;5098388;28;20138;-76
2021/05/26 04:08:38;;;;;;;4.70;1.30;;;13.60;96.70;;;;;;5098680;27;20039;-76
2021/05/26 04:11:07;;;;;;;7.30;1.13;;;13.70;96.70;;;;;;5104742;27;20108;-76
2021/05/26 04:13:53;;;;;;;5.97;1.00;;;13.60;96.70;;;;;;5090698;28;20040;-76
2021/05/26 04:16:40;;;;;;;4.37;1.00;;;13.50;96.70;;;;;;5102877;27;20058;-76
2021/05/26 04:19:28;;;;;;;3.50;0.98;;;13.60;96.70;;;;;;5098229;27;20048;-76
2021/05/26 04:21:58;;;;;;;5.72;1.30;;;13.60;96.70;;;;;;5099259;28;20051;-76
2021/05/26 04:24:32;;;;;;;4.15;1.02;;;13.70;96.70;;;;;;5098224;28;20051;-76
2021/05/26 04:27:00;;;;;;;5.50;1.23;;;13.60;96.70;;;;;;5099630;27;20036;-76
2021/05/26 04:29:29;;;;;;;3.40;0.80;;;13.70;96.70;;;;;;5100565;28;20101;-76
2021/05/26 04:31:58;;;;;;;3.92;0.82;;;13.70;96.70;;;;;;5104985;27;20348;-76
2021/05/26 04:34:26;;;;;;;4.53;1.00;;;13.70;96.70;;;;;;5099306;28;20047;-76
2021/05/26 04:36:55;;;;;;;6.60;1.50;;;13.60;96.70;;;;;;5104957;27;20054;-76
2021/05/26 04:39:23;;;;;;;3.50;0.77;;;13.50;96.70;;;;;;5097728;27;20032;-76
2021/05/26 04:41:51;;;;;;;5.03;0.95;;;13.60;96.70;;;;;;5097710;27;20935;-76
2021/05/26 04:44:19;;;;;;;4.78;0.90;;;13.80;96.70;;;;;;5099458;27;20420;-76
2021/05/26 04:46:47;;;;;;;3.67;0.80;;;13.80;96.70;;;;;;5100508;27;20055;-76
2021/05/26 04:49:16;;;;;;;4.68;0.75;;;13.80;96.70;;;;;;5098609;28;20127;-76
2021/05/26 04:51:45;;;;;;;2.42;0.70;;;13.90;96.70;;;;;;5099560;28;20519;-76
2021/05/26 04:54:13;;;;;;;4.90;1.00;;;13.90;96.70;;;;;;5105828;27;20042;-76
2021/05/26 04:56:44;;;;;;;3.33;0.88;;;14.00;96.70;;;;;;5096934;27;20054;-76
2021/05/26 04:59:15;;;;;;;3.97;1.08;;;14.00;96.70;;;;;;5097294;28;20043;-76
2021/05/26 05:01:44;;;;;;;2.75;0.88;;;14.00;96.70;;;;;;5097418;28;20149;-76
2021/05/26 05:04:12;;;;;;;4.20;1.30;;;14.10;96.70;;;;;;5097566;28;20499;-76
2021/05/26 05:06:41;;;;;;;3.42;0.98;;;14.00;96.70;;;;;;5099996;28;20036;-76
2021/05/26 05:09:10;;;;;;;3.63;1.17;;;14.00;96.70;;;;;;5101239;28;20035;-76
2021/05/26 05:11:39;;;;;;;3.55;1.05;;;14.10;96.70;;;;;;5099863;28;20044;-77
2021/05/26 05:14:07;;;;;;;2.97;0.93;;;14.10;96.70;;;;;;5079418;27;20043;-76
2021/05/26 05:16:35;;;;;;;6.10;1.27;;;14.10;96.70;;;;;;5101773;27;20043;-76
2021/05/26 05:19:04;;;;;;;2.67;0.95;;;14.10;96.70;;;;;;5098870;28;20043;-76
2021/05/26 05:21:32;;;;;;;7.72;1.73;;;14.10;96.70;;;;;;5105980;27;20054;-76
2021/05/26 05:24:02;;;;;;;4.28;1.23;;;14.10;96.70;;;;;;5082421;28;20443;-76
2021/05/26 05:26:30;;;;;;;4.88;1.52;;;14.20;96.70;;;;;;5097518;28;20133;-77
2021/05/26 05:29:01;;;;;;;4.85;1.60;;;14.20;96.70;;;;;;5100411;27;20040;-76
2021/05/26 05:31:31;;;;;;;6.20;1.45;;;14.30;96.70;;;;;;5102731;27;20532;-76
2021/05/26 05:33:59;;;;;;;7.53;1.98;;;14.30;96.70;;;;;;5100123;27;20048;-75
2021/05/26 05:36:27;;;;;;;5.57;1.42;;;14.30;96.70;;;;;;5099416;28;20043;-76
2021/05/26 05:38:55;;;;;;;5.32;1.45;;;14.30;96.70;;;;;;5098536;27;20035;-76
2021/05/26 05:41:24;;;;;;;5.70;1.17;;;14.40;96.70;;;;;;5098706;27;20124;-76
2021/05/26 05:43:52;;;;;;;7.75;1.63;;;14.50;96.70;;;;;;5082379;28;20071;-75
2021/05/26 05:46:21;;;;;;;6.68;1.60;;;14.60;96.70;;;;;;5103329;28;20134;-75
2021/05/26 05:48:49;;;;;;;7.65;1.73;;;14.50;96.70;;;;;;5102802;28;20040;-75
2021/05/26 05:51:17;;;;;;;6.40;1.85;;;14.70;96.70;;;;;;5099952;28;20096;-76
2021/05/26 05:53:45;;;;;;;9.18;1.90;;;14.80;96.70;;;;;;5101326;27;20114;-76
2021/05/26 05:56:13;;;;;;;4.53;1.40;;;14.80;96.70;;;;;;5100642;27;20048;-76
2021/05/26 05:58:42;;;;;;;9.95;2.28;;;14.70;96.70;;;;;;5100639;27;20040;-76
2021/05/26 06:01:11;;;;;;;6.57;1.98;;;14.80;96.70;;;;;;5081827;28;20418;-76
2021/05/26 06:03:39;;;;;;;6.70;2.03;;;14.80;96.70;;;;;;5100535;28;20434;-76
2021/05/26 06:06:08;;;;;;;6.20;1.75;;;14.90;96.70;;;;;;5098200;28;20046;-76
2021/05/26 06:08:36;;;;;;;6.70;2.05;;;14.80;96.70;;;;;;5081330;28;20044;-76
2021/05/26 06:11:05;;;;;;;8.13;1.85;;;14.80;96.70;;;;;;5086551;28;20151;-78
2021/05/26 06:13:38;;;;;;;6.28;2.08;;;14.80;96.70;;;;;;5101075;28;20036;-77
2021/05/26 06:16:07;;;;;;;8.15;2.17;;;14.90;96.70;;;;;;5083279;28;20047;-76
2021/05/26 06:18:35;;;;;;;6.28;1.70;;;15.00;96.70;;;;;;5096760;28;20143;-77
2021/05/26 06:21:04;;;;;;;6.10;1.98;;;15.10;96.70;;;;;;5101661;28;20028;-76
2021/05/26 06:23:34;;;;;;;9.45;2.15;;;15.10;96.70;;;;;;5100373;27;20050;-76
2021/05/26 06:26:03;;;;;;;9.88;2.22;;;15.20;96.70;;;;;;5104255;27;20122;-76
2021/05/26 06:28:31;;;;;;;7.60;2.15;;;15.30;96.70;;;;;;5084946;27;20050;-77
2021/05/26 06:30:59;;;;;;;9.40;2.17;;;15.40;96.70;;;;;;5101070;28;20037;-76
2021/05/26 06:33:28;;;;;;;13.77;2.75;;;15.40;96.70;;;;;;5086159;28;20035;-77
2021/05/26 06:35:57;;;;;;;9.40;2.67;;;15.40;96.70;;;;;;5100624;27;20496;-76
2021/05/26 06:38:25;;;;;;;10.20;1.98;;;15.50;96.70;;;;;;5088234;28;20050;-77
2021/05/26 06:40:53;;;;;;;8.23;2.28;;;15.50;96.70;;;;;;5101385;27;20051;-74
2021/05/26 06:43:21;;;;;;;11.93;3.20;;;15.50;96.70;;;;;;5103397;28;20509;-75
2021/05/26 06:45:49;;;;;;;12.27;3.28;;;15.60;96.70;;;;;;5101438;28;20088;-75
2021/05/26 06:48:17;;;;;;;11.65;3.20;;;15.60;96.70;;;;;;5108491;27;20431;-74
2021/05/26 06:50:47;;;;;;;8.18;2.83;;;15.70;96.70;;;;;;5101295;27;20554;-74
2021/05/26 06:53:15;;;;;;;10.85;3.40;;;15.70;96.70;;;;;;5105718;27;20039;-75
2021/05/26 06:55:43;;;;;;;10.80;3.03;;;15.70;96.70;;;;;;5102702;27;20054;-74
2021/05/26 06:58:11;;;;;;;9.50;2.88;;;15.80;96.70;;;;;;5103438;27;20036;-75
2021/05/26 07:00:39;;;;;;;8.82;2.88;;;15.90;96.70;;;;;;5103128;28;20042;-75
2021/05/26 07:03:09;;;;;;;11.52;3.45;;;15.90;96.70;;;;;;5105030;27;20035;-75
2021/05/26 07:05:39;;;;;;;11.77;3.47;;;16.00;96.70;;;;;;5102421;27;20106;-75
2021/05/26 07:08:08;;;;;;;10.98;3.15;;;16.00;96.70;;;;;;5101513;28;20565;-75
2021/05/26 07:10:36;;;;;;;13.90;3.38;;;16.10;96.70;;;;;;5103787;28;20063;-75
2021/05/26 07:13:04;;;;;;;12.40;3.08;;;15.90;96.70;;;;;;5087564;28;20615;-77
2021/05/26 07:15:32;;;;;;;8.90;2.72;;;16.10;96.70;;;;;;5105280;27;20270;-76
2021/05/26 07:18:04;;;;;;;11.80;3.10;;;16.10;96.70;;;;;;5086529;27;20047;-75
2021/05/26 07:20:32;;;;;;;10.43;2.90;;;16.10;96.70;;;;;;5105300;27;20044;-74
2021/05/26 07:23:01;;;;;;;10.27;3.13;;;16.10;96.70;;;;;;5105861;27;20059;-74
2021/05/26 07:25:30;;;;;;;11.32;2.83;;;16.20;96.70;;;;;;5102674;28;20513;-74
2021/05/26 07:27:58;;;;;;;11.05;2.65;;;16.30;96.70;;;;;;5097566;28;20047;-74
2021/05/26 07:30:26;;;;;;;10.95;2.70;;;16.50;96.70;;;;;;5106279;27;20041;-75
2021/05/26 07:32:55;;;;;;;15.80;3.47;;;16.40;96.70;;;;;;5101517;27;20035;-75
2021/05/26 07:35:23;;;;;;;8.20;2.47;;;16.40;96.70;;;;;;5083429;28;20472;-75
2021/05/26 07:37:52;;;;;;;9.95;2.92;;;16.50;96.70;;;;;;5106387;27;20044;-75
2021/05/26 07:40:20;;;;;;;9.48;2.50;;;16.70;96.70;;;;;;5101463;28;20056;-75
2021/05/26 07:42:50;;;;;;;10.55;2.67;;;16.70;96.70;;;;;;5098382;28;20050;-75
2021/05/26 07:45:18;;;;;;;13.25;3.25;;;16.80;96.70;;;;;;5100802;28;20505;-75
2021/05/26 07:47:46;;;;;;;11.85;2.90;;;16.90;96.70;;;;;;5100566;28;20038;-74
2021/05/26 07:50:15;;;;;;;11.27;2.78;;;16.90;96.70;;;;;;5102239;27;20067;-75
2021/05/26 07:52:43;;;;;;;11.05;3.00;;;16.90;96.70;;;;;;5101614;27;20043;-75
2021/05/26 07:55:14;;;;;;;11.07;2.95;;;16.90;96.70;;;;;;5100714;28;20424;-74
2021/05/26 07:57:42;;;;;;;11.63;3.08;;;17.00;96.70;;;;;;5100396;27;20051;-75
2021/05/26 08:00:13;;;;;;;12.77;2.40;;;17.10;96.70;;;;;;5100762;27;20036;-75
2021/05/26 08:02:41;;;;;;;7.50;2.20;;;17.10;96.70;;;;;;5097323;27;20075;-75
2021/05/26 08:05:11;;;;;;;9.43;1.88;;;17.20;96.70;;;;;;5101002;28;20055;-74
2021/05/26 08:07:39;;;;;;;15.32;2.97;;;17.30;96.70;;;;;;5104550;27;20147;-74
2021/05/26 08:10:08;;;;;;;8.00;2.15;;;17.40;96.70;;;;;;5102528;27;20043;-74
2021/05/26 08:12:36;;;;;;;12.57;2.95;;;17.40;96.70;;;;;;5100194;27;20052;-75
2021/05/26 08:15:07;;;;;;;11.60;2.38;;;17.50;96.70;;;;;;5103619;27;20040;-75
2021/05/26 08:17:36;;;;;;;9.82;2.60;;;17.50;96.70;;;;;;5102033;28;20097;-75
2021/05/26 08:20:06;;;;;;;11.57;2.47;;;17.40;96.70;;;;;;5103613;27;20056;-75
2021/05/26 08:22:34;;;;;;;11.35;3.38;;;17.40;96.70;;;;;;5098398;27;20489;-75
2021/05/26 08:25:04;;;;;;;10.63;2.67;;;17.40;96.70;;;;;;5100990;27;20051;-75
2021/05/26 08:27:32;;;;;;;13.00;2.13;;;17.50;96.70;;;;;;5104327;27;20534;-74
2021/05/26 08:30:01;;;;;;;11.93;2.58;;;17.50;96.70;;;;;;5108790;27;20105;-75
2021/05/26 08:32:30;;;;;;;10.75;2.30;;;17.70;96.70;;;;;;5102620;27;20310;-75
2021/05/26 08:34:59;;;;;;;9.38;2.72;;;17.70;96.70;;;;;;5101769;27;20331;-75
2021/05/26 08:37:27;;;;;;;9.68;2.45;;;17.80;96.70;;;;;;5098624;28;20882;-75
2021/05/26 08:39:55;;;;;;;12.85;2.30;;;17.80;96.70;;;;;;5103891;27;20032;-74
2021/05/26 08:42:24;;;;;;;8.68;1.98;;;17.80;96.70;;;;;;5103686;27;20052;-75
2021/05/26 08:44:52;;;;;;;15.60;2.90;;;17.90;96.70;;;;;;5102040;27;20402;-75
2021/05/26 08:47:22;;;;;;;14.52;2.92;;;18.00;96.70;;;;;;5100260;27;20055;-75
2021/05/26 08:49:50;;;;;;;10.05;2.45;;;18.00;96.70;;;;;;5100057;28;20047;-75
2021/05/26 08:52:21;;;;;;;14.45;2.90;;;18.00;96.70;;;;;;5100873;27;20039;-76
2021/05/26 08:54:49;;;;;;;9.07;2.33;;;18.10;96.70;;;;;;5101111;28;20105;-75
2021/05/26 08:57:17;;;;;;;9.68;2.10;;;18.20;96.70;;;;;;5106117;27;20510;-75
2021/05/26 08:59:45;;;;;;;10.68;2.78;;;18.20;96.70;;;;;;5101467;28;20479;-75
2021/05/26 09:02:14;;;;;;;10.55;2.80;;;18.30;96.70;;;;;;5095797;27;20123;-75
2021/05/26 09:04:42;;;;;;;13.13;2.63;;;18.30;96.70;;;;;;5098706;27;20048;-75
2021/05/26 09:07:13;;;;;;;9.00;2.22;;;18.50;96.70;;;;;;5101053;28;20053;-75
2021/05/26 09:09:54;;;;;;;12.82;3.05;;;18.60;96.70;;;;;;5100148;28;20116;-75
2021/05/26 09:12:28;;;;;;;9.07;2.33;;;18.70;96.70;;;;;;5097096;28;20097;-75
2021/05/26 09:15:01;;;;;;;9.43;2.53;;;18.70;96.70;;;;;;5096529;28;20120;-75
2021/05/26 09:17:30;;;;;;;9.85;2.15;;;18.90;96.70;;;;;;5099610;28;20043;-75
2021/05/26 09:20:23;;;;;;;9.38;2.33;;;18.90;96.70;;;;;;5098056;28;20047;-75
2021/05/26 09:23:00;;;;;;;9.63;2.85;;;18.90;96.70;;;;;;5101029;27;20078;-75
2021/05/26 09:25:29;;;;;;;;;;;18.90;96.70;;;;;;5104019;27;20051;-75
2021/05/26 09:28:19;;;;;;;12.23;2.40;;;18.90;96.70;;;;;;5100658;27;20296;-75
2021/05/26 09:30:54;;;;;;;13.13;2.55;;;19.00;96.70;;;;;;5099823;28;20043;-75
2021/05/26 09:33:33;;;;;;;9.02;2.30;;;19.10;96.70;;;;;;5112954;27;20042;-75
2021/05/26 09:36:21;;;;;;;11.45;2.45;;;19.10;96.70;;;;;;5095819;28;20163;-75
2021/05/26 09:38:50;;;;;;;;;;;19.30;96.70;;;;;;5102651;27;20554;-75
2021/05/26 09:41:22;;;;;;;8.90;1.80;;;19.30;96.70;;;;;;5107532;27;19924;-75
2021/05/26 09:43:52;;;;;;;11.95;2.60;;;19.40;96.70;;;;;;5099436;28;20104;-75
2021/05/26 09:46:24;;;;;;;12.55;2.88;;;19.60;96.70;;;;;;5099488;28;20043;-75
2021/05/26 09:49:08;;;;;;;10.10;2.15;;;19.60;96.70;;;;;;5100427;27;20142;-75
2021/05/26 09:51:38;;;;;;;9.52;2.67;;;19.70;96.70;;;;;;5092720;27;20052;-75
2021/05/26 09:54:15;;;;;;;7.28;1.85;;;19.70;96.70;;;;;;5101901;28;20048;-76
2021/05/26 09:56:47;;;;;;;12.85;2.65;;;19.70;96.70;;;;;;5097292;28;20527;-76
2021/05/26 09:59:16;;;;;;;9.27;1.90;;;19.80;96.70;;;;;;5099277;28;20040;-75
2021/05/26 10:01:45;;;;;;;9.93;2.03;;;19.80;96.70;;;;;;5098920;28;20382;-76
2021/05/26 10:04:13;;;;;;;15.07;2.35;;;19.80;96.70;;;;;;5102188;27;20393;-75
2021/05/26 10:06:42;;;;;;;12.35;2.40;;;20.00;96.70;;;;;;5080883;28;19927;-76
2021/05/26 10:09:33;;;;;;;6.75;2.00;;;20.00;96.70;;;;;;5100328;28;20181;-75
2021/05/26 10:12:12;;;;;;;7.95;1.60;;;20.10;96.70;;;;;;5097249;28;20505;-75
2021/05/26 10:14:44;;;;;;;9.70;3.72;;;20.30;96.70;;;;;;5099429;28;20058;-75
2021/05/26 10:17:20;;;;;;;8.02;2.15;;;20.30;96.70;;;;;;5099280;28;20104;-76
2021/05/26 10:19:49;;;;;;;6.63;1.52;;;20.30;92.90;;;;;;5099432;28;20596;-75
2021/05/26 10:22:18;;;;;;;7.28;1.65;;;20.40;92.70;;;;;;5099222;28;20036;-75
2021/05/26 10:24:47;;;;;;;7.00;2.38;;;20.50;93.20;;;;;;5100739;28;20040;-75
2021/05/26 10:27:32;;;;;;;7.80;1.27;;;20.70;92.70;;;;;;5094546;28;20051;-75
2021/05/26 10:30:05;;;;;;;7.70;1.63;;;20.80;93.00;;;;;;5099206;28;20653;-76
2021/05/26 10:32:55;;;;;;;5.25;1.08;;;20.90;92.50;;;;;;5097369;28;20059;-76
2021/05/26 10:35:24;;;;;;;5.13;1.10;;;21.00;91.20;;;;;;5090876;28;20558;-75
2021/05/26 10:37:58;;;;;;;6.55;1.25;;;21.30;91.70;;;;;;5098663;28;20039;-76
2021/05/26 10:40:44;;;;;;;5.78;1.27;;;21.40;89.00;;;;;;5099175;28;20039;-76
2021/05/26 10:43:34;;;;;;;5.88;1.30;;;21.40;88.80;;;;;;5099048;28;20046;-77
2021/05/26 10:46:05;;;;;;;5.90;1.30;;;21.50;90.90;;;;;;5101201;28;20147;-76
2021/05/26 10:49:10;;;;;;;9.27;1.30;;;21.50;92.10;;;;;;5099752;28;20052;-75
2021/05/26 10:52:09;;;;;;;4.72;1.23;;;21.60;91.80;;;;;;5094444;28;20044;-74
2021/05/26 10:55:07;;;;;;;8.10;1.23;;;21.50;89.20;;;;;;5092841;28;20096;-74
2021/05/26 10:58:05;;;;;;;7.15;1.50;;;21.60;87.60;;;;;;5095177;28;20521;-74
2021/05/26 11:00:34;;;;;;;;;;;21.60;87.40;;;;;;5089135;27;20320;-73
2021/05/26 11:03:39;;;;;;;6.20;1.20;;;21.80;88.50;;;;;;5096963;28;19923;-73
2021/05/26 11:06:36;;;;;;;4.75;1.08;;;22.00;87.20;;;;;;5096874;28;20046;-73
2021/05/26 11:09:09;;;;;;;6.20;1.52;;;21.80;87.90;;;;;;5094441;28;20047;-73
2021/05/26 11:11:49;;;;;;;6.30;1.25;;;21.90;87.10;;;;;;5097740;28;20089;-74
2021/05/26 11:14:29;;;;;;;6.55;1.40;;;22.10;88.90;;;;;;5097594;27;20066;-74
2021/05/26 11:17:28;;;;;;;5.25;1.40;;;22.20;88.40;;;;;;5102098;27;20043;-74
2021/05/26 11:20:16;;;;;;;6.72;1.42;;;22.20;86.60;;;;;;5083036;27;20043;-74
2021/05/26 11:22:45;;;;;;;2.92;0.88;;;22.20;87.00;;;;;;5107059;27;20423;-76
2021/05/26 11:25:15;;;;;;;3.83;0.88;;;22.40;86.70;;;;;;5105385;27;20035;-76
2021/05/26 11:27:48;;;;;;;3.75;0.73;;;22.40;84.90;;;;;;5098885;28;20130;-75
2021/05/26 11:30:25;;;;;;;5.28;1.40;;;22.40;84.60;;;;;;5101331;28;20120;-76
2021/05/26 11:33:09;;;;;;;3.20;0.93;;;22.40;85.60;;;;;;5097520;27;20448;-77
2021/05/26 11:35:47;;;;;;;3.10;0.90;;;22.50;84.50;;;;;;5081948;28;20059;-77
2021/05/26 11:38:26;;;;;;;5.35;0.70;;;22.60;81.80;;;;;;5085085;27;20040;-76
2021/05/26 11:40:54;;;;;;;2.58;0.80;;;22.70;79.10;;;;;;5107524;27;20039;-77
2021/05/26 11:43:23;;;;;;;3.67;0.70;;;22.80;78.90;;;;;;5098233;28;20040;-77
2021/05/26 11:46:05;;;;;;;2.83;0.55;;;22.90;80.00;;;;;;5102111;27;20048;-76
2021/05/26 11:48:34;;;;;;;3.70;0.90;;;22.80;80.20;;;;;;5101260;27;20419;-76
2021/05/26 11:51:03;;;;;;;5.53;0.90;;;23.00;79.90;;;;;;5104007;28;20039;-76
2021/05/26 11:53:31;;;;;;;2.45;0.60;;;22.90;80.40;;;;;;5102438;27;20039;-75
2021/05/26 11:56:05;;;;;;;2.20;0.52;;;23.10;80.10;;;;;;5091932;27;20134;-77
2021/05/26 11:58:37;;;;;;;2.15;0.40;;;23.00;78.00;;;;;;5099356;27;20044;-77
2021/05/26 12:01:12;;;;;;;4.35;0.60;;;22.90;76.20;;;;;;5103491;27;20055;-77
2021/05/26 12:03:42;;;;;;;3.28;0.50;;;23.00;77.00;;;;;;5100837;27;20497;-76
2021/05/26 12:06:10;;;;;;;2.40;0.65;;;22.90;75.90;;;;;;5104885;27;20138;-77
2021/05/26 12:08:40;;;;;;;4.78;0.60;;;22.90;75.90;;;;;;5100235;28;20112;-76
2021/05/26 12:11:10;;;;;;;1.63;0.50;;;22.80;76.20;;;;;;5101428;27;20044;-77
2021/05/26 12:13:40;;;;;;;1.92;0.55;;;23.00;74.90;;;;;;5102411;27;20505;-76
2021/05/26 12:16:10;;;;;;;2.35;0.60;;;23.00;73.70;;;;;;5102801;27;20531;-77
2021/05/26 12:18:48;;;;;;;3.10;0.60;;;23.10;75.20;;;;;;5101846;27;20040;-76
2021/05/26 12:21:16;;;;;;;4.30;1.00;;;23.30;76.10;;;;;;5104419;27;20039;-76
2021/05/26 12:23:47;;;;;;;4.63;0.40;;;23.30;76.30;;;;;;5104713;27;20057;-77
2021/05/26 12:26:24;;;;;;;1.45;0.50;;;23.30;75.80;;;;;;5099783;27;20126;-77
2021/05/26 12:28:55;;;;;;;2.78;1.05;;;23.20;74.10;;;;;;5084878;28;20036;-77
2021/05/26 12:31:27;;;;;;;2.78;0.68;;;23.10;76.90;;;;;;5082049;28;20094;-76
2021/05/26 12:33:57;;;;;;;4.25;0.65;;;23.10;76.80;;;;;;5100662;27;20493;-76
2021/05/26 12:36:30;;;;;;;3.45;0.50;;;23.10;76.40;;;;;;5100689;27;20031;-77
2021/05/26 12:38:59;;;;;;;1.90;0.50;;;23.20;75.60;;;;;;5100504;27;20372;-77
2021/05/26 12:41:31;;;;;;;2.75;0.45;;;23.30;75.70;;;;;;5099651;28;20035;-77
2021/05/26 12:44:01;;;;;;;2.80;0.43;;;23.30;74.90;;;;;;5099685;28;20215;-77
2021/05/26 12:46:41;;;;;;;2.03;0.63;;;23.30;75.10;;;;;;5103456;27;20497;-77
2021/05/26 12:49:48;;;;;;;4.63;0.82;;;23.30;74.60;;;;;;5098517;28;20055;-77
2021/05/26 12:52:25;;;;;;;4.60;0.75;;;23.30;77.70;;;;;;5084391;28;20595;-76
2021/05/26 12:54:54;;;;;;;3.47;0.68;;;23.40;77.00;;;;;;5082349;28;20443;-77
2021/05/26 12:57:24;;;;;;;2.58;0.60;;;23.40;75.00;;;;;;5101548;27;20052;-76
2021/05/26 12:59:54;;;;;;;4.13;0.73;;;23.40;76.40;;;;;;5099412;27;20466;-76
2021/05/26 13:02:29;;;;;;;8.27;1.00;;;23.40;75.60;;;;;;5097746;28;20932;-77
2021/05/26 13:05:00;;;;;;;4.63;0.63;;;23.40;77.70;;;;;;5099886;28;20052;-77
2021/05/26 13:07:30;;;;;;;3.38;0.80;;;23.70;76.30;;;;;;5106212;27;20050;-77
2021/05/26 13:10:13;;;;;;;2.70;0.80;;;24.10;77.00;;;;;;5102785;27;20040;-77
2021/05/26 13:12:42;;;;;;;4.93;0.80;;;24.30;76.70;;;;;;5099774;28;20139;-77